Etusivu
METAR-TAF:

METAR-TAF

Lentoasemat :

Winnemucca Municipal Airport

Winnemucca, Nevada, Yhdysvallat

Leveyspiiri: 40-54-07N, Pituuspiiri: 117-48-26W, korkeus merenpinnasta: 1311 m

Tämänhetkinen sää

Tämä raportti tehtiin 14 minuuttia sitten, kello 12.56 UTC
tyyntä
Lämpötila -4°C
Kosteus 68%
Ilmanpaine 1021 hPa
Näkyvyys: 16.1 km
selkeää

METAR: KWMC 131256Z AUTO 00000KT 10SM CLR M04/M09 A3015 RMK AO2 SLP212 T10441094

Aika: 05:10 (13:10 UTC)

Sääennuste

Tämä raportti tehtiin 1 tunti ja 50 minuuttia sitten, kello 11.20 UTC
Ennuste voimassa 13. päivästä klo 12 UTC - 14. päivään klo 12 UTC
Tuuli 3 kn eri suunnista
Näkyvyys: 10 km
Muutamia pilviä 15000 ft:n korkeudessa
Hajanaisia pilviä 20000 ft:n korkeudessa

TAF: KWMC 131120Z 1312/1412 VRB03KT P6SM FEW150 SCT200

Säähavainnot ja -ennusteet yli 4000 lentoasemalta (METAR- ja TAF-raportit).

Käytössä olevat sääasemat on merkitty karttaan keltaisilla ja punaisilla pisteillä.

Aseta hiiri pisteen päälle nähdäksesi sääaseman nimen.

Klikkaa sitten nähdäksesi säähavainnot ja -ennusteet.

Kartan vaihtaminen: klikkaa mustalla rastilla varustettuja vihreitä pisteitä, niin voit zoomata sisään; viivalla varustettua vihreää pistettä, niin voit zoomata ulos tai vihreitä nuolia, niin pääset viereisille kartoille.


METAR-TAF: